sensor_id;sensor_type;location;lat;lon;timestamp;P1;durP1;ratioP1;P2;durP2;ratioP2
11614;SDS011;5863;52.832;4.758;2023-04-24T00:00:54;1.75;;;1.10;;
11614;SDS011;5863;52.832;4.758;2023-04-24T00:03:21;1.33;;;0.90;;
11614;SDS011;5863;52.832;4.758;2023-04-24T00:05:48;1.42;;;0.90;;
11614;SDS011;5863;52.832;4.758;2023-04-24T00:08:16;1.75;;;1.00;;
11614;SDS011;5863;52.832;4.758;2023-04-24T00:10:42;1.25;;;1.00;;
11614;SDS011;5863;52.832;4.758;2023-04-24T00:13:09;0.82;;;0.82;;
11614;SDS011;5863;52.832;4.758;2023-04-24T00:15:36;1.27;;;0.90;;
11614;SDS011;5863;52.832;4.758;2023-04-24T00:18:04;0.90;;;0.90;;
11614;SDS011;5863;52.832;4.758;2023-04-24T00:20:31;2.10;;;1.30;;
11614;SDS011;5863;52.832;4.758;2023-04-24T00:22:59;1.38;;;1.23;;
11614;SDS011;5863;52.832;4.758;2023-04-24T00:25:26;1.85;;;0.98;;
11614;SDS011;5863;52.832;4.758;2023-04-24T00:27:52;1.48;;;1.02;;
11614;SDS011;5863;52.832;4.758;2023-04-24T00:30:19;2.28;;;1.02;;
11614;SDS011;5863;52.832;4.758;2023-04-24T00:32:46;1.48;;;1.10;;
11614;SDS011;5863;52.832;4.758;2023-04-24T00:35:14;2.92;;;1.30;;
11614;SDS011;5863;52.832;4.758;2023-04-24T00:37:41;1.52;;;1.30;;
11614;SDS011;5863;52.832;4.758;2023-04-24T00:40:07;1.52;;;1.33;;
11614;SDS011;5863;52.832;4.758;2023-04-24T00:42:35;3.13;;;1.60;;
11614;SDS011;5863;52.832;4.758;2023-04-24T00:45:02;2.35;;;1.85;;
11614;SDS011;5863;52.832;4.758;2023-04-24T00:47:30;2.20;;;2.00;;
11614;SDS011;5863;52.832;4.758;2023-04-24T00:49:57;2.05;;;1.65;;
11614;SDS011;5863;52.832;4.758;2023-04-24T00:52:25;2.63;;;1.83;;
11614;SDS011;5863;52.832;4.758;2023-04-24T00:54:53;7.85;;;2.80;;
11614;SDS011;5863;52.832;4.758;2023-04-24T00:57:20;4.82;;;3.40;;
11614;SDS011;5863;52.832;4.758;2023-04-24T00:59:48;3.97;;;3.38;;
11614;SDS011;5863;52.832;4.758;2023-04-24T01:02:15;5.35;;;4.03;;
11614;SDS011;5863;52.832;4.758;2023-04-24T01:04:42;6.38;;;3.97;;
11614;SDS011;5863;52.832;4.758;2023-04-24T01:07:09;5.95;;;4.20;;
11614;SDS011;5863;52.832;4.758;2023-04-24T01:09:37;5.90;;;3.72;;
11614;SDS011;5863;52.832;4.758;2023-04-24T01:12:06;4.78;;;3.35;;
11614;SDS011;5863;52.832;4.758;2023-04-24T01:14:34;4.68;;;3.50;;
11614;SDS011;5863;52.832;4.758;2023-04-24T01:17:00;7.05;;;3.78;;
11614;SDS011;5863;52.832;4.758;2023-04-24T01:19:27;5.70;;;4.30;;
11614;SDS011;5863;52.832;4.758;2023-04-24T01:21:54;6.38;;;3.67;;
11614;SDS011;5863;52.832;4.758;2023-04-24T01:24:26;6.15;;;4.45;;
11614;SDS011;5863;52.832;4.758;2023-04-24T01:26:52;6.32;;;4.80;;
11614;SDS011;5863;52.832;4.758;2023-04-24T01:29:20;8.13;;;6.22;;
11614;SDS011;5863;52.832;4.758;2023-04-24T01:31:47;7.82;;;5.82;;
11614;SDS011;5863;52.832;4.758;2023-04-24T01:34:14;8.80;;;6.32;;
11614;SDS011;5863;52.832;4.758;2023-04-24T01:36:42;10.50;;;6.55;;
11614;SDS011;5863;52.832;4.758;2023-04-24T01:39:11;8.15;;;6.50;;
11614;SDS011;5863;52.832;4.758;2023-04-24T01:41:39;8.30;;;6.20;;
11614;SDS011;5863;52.832;4.758;2023-04-24T01:44:06;6.68;;;5.20;;
11614;SDS011;5863;52.832;4.758;2023-04-24T01:46:33;7.55;;;4.57;;
11614;SDS011;5863;52.832;4.758;2023-04-24T01:49:00;7.53;;;4.55;;
11614;SDS011;5863;52.832;4.758;2023-04-24T01:51:28;5.65;;;3.83;;
11614;SDS011;5863;52.832;4.758;2023-04-24T01:53:56;6.53;;;3.67;;
11614;SDS011;5863;52.832;4.758;2023-04-24T01:56:22;5.05;;;3.17;;
11614;SDS011;5863;52.832;4.758;2023-04-24T01:58:51;6.18;;;3.20;;
11614;SDS011;5863;52.832;4.758;2023-04-24T02:01:20;8.30;;;3.00;;
11614;SDS011;5863;52.832;4.758;2023-04-24T02:03:47;6.55;;;3.25;;
11614;SDS011;5863;52.832;4.758;2023-04-24T02:06:13;7.05;;;2.88;;
11614;SDS011;5863;52.832;4.758;2023-04-24T02:08:40;7.30;;;3.30;;
11614;SDS011;5863;52.832;4.758;2023-04-24T02:11:08;8.02;;;4.07;;
11614;SDS011;5863;52.832;4.758;2023-04-24T02:13:35;13.23;;;4.85;;
11614;SDS011;5863;52.832;4.758;2023-04-24T02:16:03;12.10;;;5.40;;
11614;SDS011;5863;52.832;4.758;2023-04-24T02:18:30;13.95;;;5.93;;
11614;SDS011;5863;52.832;4.758;2023-04-24T02:20:57;10.65;;;6.55;;
11614;SDS011;5863;52.832;4.758;2023-04-24T02:23:24;11.90;;;7.53;;
11614;SDS011;5863;52.832;4.758;2023-04-24T02:25:52;9.88;;;7.07;;
11614;SDS011;5863;52.832;4.758;2023-04-24T02:28:19;12.40;;;7.32;;
11614;SDS011;5863;52.832;4.758;2023-04-24T02:30:46;15.05;;;7.07;;
11614;SDS011;5863;52.832;4.758;2023-04-24T02:33:13;6.93;;;5.95;;
11614;SDS011;5863;52.832;4.758;2023-04-24T02:35:40;7.68;;;6.22;;
11614;SDS011;5863;52.832;4.758;2023-04-24T02:38:07;7.07;;;6.00;;
11614;SDS011;5863;52.832;4.758;2023-04-24T02:40:33;6.78;;;5.93;;
11614;SDS011;5863;52.832;4.758;2023-04-24T02:43:00;8.15;;;5.90;;
11614;SDS011;5863;52.832;4.758;2023-04-24T02:45:27;11.23;;;5.88;;
11614;SDS011;5863;52.832;4.758;2023-04-24T02:47:54;9.27;;;6.38;;
11614;SDS011;5863;52.832;4.758;2023-04-24T02:50:22;8.75;;;6.40;;
11614;SDS011;5863;52.832;4.758;2023-04-24T02:52:49;10.15;;;7.05;;
11614;SDS011;5863;52.832;4.758;2023-04-24T02:55:15;9.18;;;6.63;;
11614;SDS011;5863;52.832;4.758;2023-04-24T02:57:42;9.98;;;6.63;;
11614;SDS011;5863;52.832;4.758;2023-04-24T03:00:09;9.98;;;6.80;;
11614;SDS011;5863;52.832;4.758;2023-04-24T03:02:36;8.52;;;6.75;;
11614;SDS011;5863;52.832;4.758;2023-04-24T03:05:03;10.07;;;6.72;;
11614;SDS011;5863;52.832;4.758;2023-04-24T03:07:32;13.18;;;6.97;;
11614;SDS011;5863;52.832;4.758;2023-04-24T03:09:59;11.40;;;7.63;;
11614;SDS011;5863;52.832;4.758;2023-04-24T03:12:25;9.70;;;7.72;;
11614;SDS011;5863;52.832;4.758;2023-04-24T03:14:52;9.77;;;8.13;;
11614;SDS011;5863;52.832;4.758;2023-04-24T03:17:19;11.10;;;8.35;;
11614;SDS011;5863;52.832;4.758;2023-04-24T03:19:45;9.43;;;8.10;;
11614;SDS011;5863;52.832;4.758;2023-04-24T03:22:12;10.70;;;7.47;;
11614;SDS011;5863;52.832;4.758;2023-04-24T03:24:41;8.25;;;6.53;;
11614;SDS011;5863;52.832;4.758;2023-04-24T03:27:07;7.63;;;5.53;;
11614;SDS011;5863;52.832;4.758;2023-04-24T03:29:34;7.32;;;5.43;;
11614;SDS011;5863;52.832;4.758;2023-04-24T03:32:01;6.32;;;4.50;;
11614;SDS011;5863;52.832;4.758;2023-04-24T03:34:27;6.80;;;4.00;;
11614;SDS011;5863;52.832;4.758;2023-04-24T03:36:54;6.32;;;3.78;;
11614;SDS011;5863;52.832;4.758;2023-04-24T03:39:21;4.72;;;4.10;;
11614;SDS011;5863;52.832;4.758;2023-04-24T03:41:50;8.13;;;4.38;;
11614;SDS011;5863;52.832;4.758;2023-04-24T03:44:17;6.78;;;3.85;;
11614;SDS011;5863;52.832;4.758;2023-04-24T03:46:44;6.75;;;4.47;;
11614;SDS011;5863;52.832;4.758;2023-04-24T03:49:10;6.18;;;4.00;;
11614;SDS011;5863;52.832;4.758;2023-04-24T03:51:37;5.18;;;3.42;;
11614;SDS011;5863;52.832;4.758;2023-04-24T03:54:04;5.38;;;2.75;;
11614;SDS011;5863;52.832;4.758;2023-04-24T03:56:31;4.68;;;2.97;;
11614;SDS011;5863;52.832;4.758;2023-04-24T03:58:58;2.42;;;2.22;;
11614;SDS011;5863;52.832;4.758;2023-04-24T04:01:25;3.35;;;2.15;;
11614;SDS011;5863;52.832;4.758;2023-04-24T04:03:53;2.88;;;1.95;;
11614;SDS011;5863;52.832;4.758;2023-04-24T04:06:19;2.55;;;1.90;;
11614;SDS011;5863;52.832;4.758;2023-04-24T04:08:47;5.80;;;2.35;;
11614;SDS011;5863;52.832;4.758;2023-04-24T04:11:13;2.13;;;1.60;;
11614;SDS011;5863;52.832;4.758;2023-04-24T04:13:40;2.17;;;1.60;;
11614;SDS011;5863;52.832;4.758;2023-04-24T04:16:08;2.00;;;1.48;;
11614;SDS011;5863;52.832;4.758;2023-04-24T04:18:35;3.38;;;1.48;;
11614;SDS011;5863;52.832;4.758;2023-04-24T04:21:02;3.83;;;1.50;;
11614;SDS011;5863;52.832;4.758;2023-04-24T04:23:29;1.35;;;1.17;;
11614;SDS011;5863;52.832;4.758;2023-04-24T04:25:56;4.05;;;1.60;;
11614;SDS011;5863;52.832;4.758;2023-04-24T04:28:23;2.50;;;1.67;;
11614;SDS011;5863;52.832;4.758;2023-04-24T04:30:51;4.82;;;2.20;;
11614;SDS011;5863;52.832;4.758;2023-04-24T04:33:20;6.22;;;3.10;;
11614;SDS011;5863;52.832;4.758;2023-04-24T04:35:46;5.50;;;3.92;;
11614;SDS011;5863;52.832;4.758;2023-04-24T04:38:14;14.57;;;6.70;;
11614;SDS011;5863;52.832;4.758;2023-04-24T04:40:41;15.05;;;8.70;;
11614;SDS011;5863;52.832;4.758;2023-04-24T04:43:08;17.73;;;9.25;;
11614;SDS011;5863;52.832;4.758;2023-04-24T04:45:36;17.77;;;10.85;;
11614;SDS011;5863;52.832;4.758;2023-04-24T04:48:03;20.85;;;13.30;;
11614;SDS011;5863;52.832;4.758;2023-04-24T04:50:34;22.75;;;14.02;;
11614;SDS011;5863;52.832;4.758;2023-04-24T04:53:00;21.08;;;14.07;;
11614;SDS011;5863;52.832;4.758;2023-04-24T04:55:27;23.58;;;14.95;;
11614;SDS011;5863;52.832;4.758;2023-04-24T04:57:54;27.10;;;17.20;;
11614;SDS011;5863;52.832;4.758;2023-04-24T05:00:22;21.88;;;15.30;;
11614;SDS011;5863;52.832;4.758;2023-04-24T05:02:50;24.55;;;15.25;;
11614;SDS011;5863;52.832;4.758;2023-04-24T05:05:17;25.40;;;14.60;;
11614;SDS011;5863;52.832;4.758;2023-04-24T05:07:45;19.60;;;13.68;;
11614;SDS011;5863;52.832;4.758;2023-04-24T05:10:13;21.08;;;12.95;;
11614;SDS011;5863;52.832;4.758;2023-04-24T05:12:39;18.98;;;11.98;;
11614;SDS011;5863;52.832;4.758;2023-04-24T05:15:06;14.85;;;9.93;;
11614;SDS011;5863;52.832;4.758;2023-04-24T05:17:33;17.13;;;9.88;;
11614;SDS011;5863;52.832;4.758;2023-04-24T05:20:00;16.30;;;9.55;;
11614;SDS011;5863;52.832;4.758;2023-04-24T05:22:28;17.63;;;9.93;;
11614;SDS011;5863;52.832;4.758;2023-04-24T05:24:56;14.15;;;10.10;;
11614;SDS011;5863;52.832;4.758;2023-04-24T05:27:23;18.35;;;9.57;;
11614;SDS011;5863;52.832;4.758;2023-04-24T05:29:50;17.23;;;9.40;;
11614;SDS011;5863;52.832;4.758;2023-04-24T05:32:17;15.30;;;7.57;;
11614;SDS011;5863;52.832;4.758;2023-04-24T05:34:43;14.48;;;7.78;;
11614;SDS011;5863;52.832;4.758;2023-04-24T05:37:10;12.15;;;7.35;;
11614;SDS011;5863;52.832;4.758;2023-04-24T05:39:37;13.88;;;7.50;;
11614;SDS011;5863;52.832;4.758;2023-04-24T05:42:05;15.40;;;7.55;;
11614;SDS011;5863;52.832;4.758;2023-04-24T05:44:32;16.77;;;6.30;;
11614;SDS011;5863;52.832;4.758;2023-04-24T05:46:59;15.73;;;7.85;;
11614;SDS011;5863;52.832;4.758;2023-04-24T05:49:26;12.48;;;6.60;;
11614;SDS011;5863;52.832;4.758;2023-04-24T05:51:53;11.00;;;6.50;;
11614;SDS011;5863;52.832;4.758;2023-04-24T05:54:20;15.75;;;6.93;;
11614;SDS011;5863;52.832;4.758;2023-04-24T05:56:46;16.50;;;7.07;;
11614;SDS011;5863;52.832;4.758;2023-04-24T05:59:14;17.42;;;7.13;;
11614;SDS011;5863;52.832;4.758;2023-04-24T06:01:42;14.23;;;7.05;;
11614;SDS011;5863;52.832;4.758;2023-04-24T06:04:09;13.77;;;6.95;;
11614;SDS011;5863;52.832;4.758;2023-04-24T06:06:36;14.68;;;7.10;;
11614;SDS011;5863;52.832;4.758;2023-04-24T06:09:02;16.20;;;7.18;;
11614;SDS011;5863;52.832;4.758;2023-04-24T06:11:29;11.60;;;6.63;;
11614;SDS011;5863;52.832;4.758;2023-04-24T06:13:56;10.55;;;6.68;;
11614;SDS011;5863;52.832;4.758;2023-04-24T06:16:27;13.25;;;6.90;;
11614;SDS011;5863;52.832;4.758;2023-04-24T06:18:53;12.20;;;6.53;;
11614;SDS011;5863;52.832;4.758;2023-04-24T06:21:20;17.70;;;6.60;;
11614;SDS011;5863;52.832;4.758;2023-04-24T06:23:47;13.00;;;6.50;;
11614;SDS011;5863;52.832;4.758;2023-04-24T06:26:14;12.18;;;6.05;;
11614;SDS011;5863;52.832;4.758;2023-04-24T06:28:41;12.18;;;6.20;;
11614;SDS011;5863;52.832;4.758;2023-04-24T06:31:07;10.15;;;6.47;;
11614;SDS011;5863;52.832;4.758;2023-04-24T06:33:36;12.30;;;6.28;;
11614;SDS011;5863;52.832;4.758;2023-04-24T06:36:02;15.23;;;6.18;;
11614;SDS011;5863;52.832;4.758;2023-04-24T06:38:30;10.63;;;5.68;;
11614;SDS011;5863;52.832;4.758;2023-04-24T06:40:56;11.27;;;6.15;;
11614;SDS011;5863;52.832;4.758;2023-04-24T06:43:23;15.23;;;5.70;;
11614;SDS011;5863;52.832;4.758;2023-04-24T06:45:50;16.85;;;5.65;;
11614;SDS011;5863;52.832;4.758;2023-04-24T06:48:16;10.73;;;5.63;;
11614;SDS011;5863;52.832;4.758;2023-04-24T06:50:44;10.02;;;5.72;;
11614;SDS011;5863;52.832;4.758;2023-04-24T06:53:11;12.10;;;5.38;;
11614;SDS011;5863;52.832;4.758;2023-04-24T06:55:39;10.20;;;4.93;;
11614;SDS011;5863;52.832;4.758;2023-04-24T06:58:06;16.50;;;5.20;;
11614;SDS011;5863;52.832;4.758;2023-04-24T07:00:33;12.40;;;5.43;;
11614;SDS011;5863;52.832;4.758;2023-04-24T07:02:59;11.00;;;5.10;;
11614;SDS011;5863;52.832;4.758;2023-04-24T07:05:27;12.13;;;5.07;;
11614;SDS011;5863;52.832;4.758;2023-04-24T07:07:56;15.65;;;4.70;;
11614;SDS011;5863;52.832;4.758;2023-04-24T07:10:23;15.75;;;5.03;;
11614;SDS011;5863;52.832;4.758;2023-04-24T07:12:52;12.93;;;5.50;;
11614;SDS011;5863;52.832;4.758;2023-04-24T07:15:19;11.40;;;4.60;;
11614;SDS011;5863;52.832;4.758;2023-04-24T07:17:45;15.80;;;4.63;;
11614;SDS011;5863;52.832;4.758;2023-04-24T07:20:12;22.08;;;5.32;;
11614;SDS011;5863;52.832;4.758;2023-04-24T07:22:39;20.17;;;5.15;;
11614;SDS011;5863;52.832;4.758;2023-04-24T07:25:08;18.80;;;4.65;;
11614;SDS011;5863;52.832;4.758;2023-04-24T07:27:35;19.90;;;4.70;;
11614;SDS011;5863;52.832;4.758;2023-04-24T07:30:02;23.77;;;4.20;;
11614;SDS011;5863;52.832;4.758;2023-04-24T07:32:29;22.05;;;4.22;;
11614;SDS011;5863;52.832;4.758;2023-04-24T07:34:56;16.45;;;4.22;;
11614;SDS011;5863;52.832;4.758;2023-04-24T07:37:23;21.13;;;4.28;;
11614;SDS011;5863;52.832;4.758;2023-04-24T07:39:49;15.02;;;4.15;;
11614;SDS011;5863;52.832;4.758;2023-04-24T07:42:18;11.35;;;3.83;;
11614;SDS011;5863;52.832;4.758;2023-04-24T07:44:44;17.33;;;4.13;;
11614;SDS011;5863;52.832;4.758;2023-04-24T07:47:12;15.73;;;3.72;;
11614;SDS011;5863;52.832;4.758;2023-04-24T07:49:40;13.68;;;3.33;;
11614;SDS011;5863;52.832;4.758;2023-04-24T07:52:07;19.02;;;3.92;;
11614;SDS011;5863;52.832;4.758;2023-04-24T07:54:34;15.15;;;3.38;;
11614;SDS011;5863;52.832;4.758;2023-04-24T07:57:02;11.82;;;3.30;;
11614;SDS011;5863;52.832;4.758;2023-04-24T07:59:32;13.88;;;3.08;;
11614;SDS011;5863;52.832;4.758;2023-04-24T08:01:58;14.02;;;3.20;;
11614;SDS011;5863;52.832;4.758;2023-04-24T08:04:26;16.20;;;3.65;;
11614;SDS011;5863;52.832;4.758;2023-04-24T08:06:53;11.63;;;3.40;;
11614;SDS011;5863;52.832;4.758;2023-04-24T08:09:20;9.15;;;2.90;;
11614;SDS011;5863;52.832;4.758;2023-04-24T08:11:47;14.93;;;2.83;;
11614;SDS011;5863;52.832;4.758;2023-04-24T08:14:14;10.75;;;2.78;;
11614;SDS011;5863;52.832;4.758;2023-04-24T08:16:42;16.40;;;3.28;;
11614;SDS011;5863;52.832;4.758;2023-04-24T08:19:09;17.27;;;3.00;;
11614;SDS011;5863;52.832;4.758;2023-04-24T08:21:36;14.02;;;3.35;;
11614;SDS011;5863;52.832;4.758;2023-04-24T08:24:03;12.50;;;3.08;;
11614;SDS011;5863;52.832;4.758;2023-04-24T08:26:32;11.68;;;2.78;;
11614;SDS011;5863;52.832;4.758;2023-04-24T08:29:00;11.50;;;2.35;;
11614;SDS011;5863;52.832;4.758;2023-04-24T08:31:26;12.70;;;2.90;;
11614;SDS011;5863;52.832;4.758;2023-04-24T08:33:54;11.88;;;2.55;;
11614;SDS011;5863;52.832;4.758;2023-04-24T08:38:53;12.73;;;2.65;;
11614;SDS011;5863;52.832;4.758;2023-04-24T08:41:19;14.40;;;2.65;;
11614;SDS011;5863;52.832;4.758;2023-04-24T08:43:55;16.75;;;3.38;;
11614;SDS011;5863;52.832;4.758;2023-04-24T08:46:23;13.18;;;3.08;;
11614;SDS011;5863;52.832;4.758;2023-04-24T08:48:50;9.32;;;2.80;;
11614;SDS011;5863;52.832;4.758;2023-04-24T08:51:19;15.70;;;2.95;;
11614;SDS011;5863;52.832;4.758;2023-04-24T08:53:47;14.63;;;2.63;;
11614;SDS011;5863;52.832;4.758;2023-04-24T08:56:15;10.35;;;2.38;;
11614;SDS011;5863;52.832;4.758;2023-04-24T08:58:42;11.55;;;2.90;;
11614;SDS011;5863;52.832;4.758;2023-04-24T09:01:10;11.23;;;2.72;;
11614;SDS011;5863;52.832;4.758;2023-04-24T09:03:38;9.55;;;2.53;;
11614;SDS011;5863;52.832;4.758;2023-04-24T09:06:05;11.20;;;3.03;;
11614;SDS011;5863;52.832;4.758;2023-04-24T09:08:34;10.57;;;2.50;;
11614;SDS011;5863;52.832;4.758;2023-04-24T09:11:02;9.50;;;2.20;;
11614;SDS011;5863;52.832;4.758;2023-04-24T09:13:30;10.35;;;2.35;;
11614;SDS011;5863;52.832;4.758;2023-04-24T09:15:57;9.10;;;2.55;;
11614;SDS011;5863;52.832;4.758;2023-04-24T09:18:25;10.82;;;2.40;;
11614;SDS011;5863;52.832;4.758;2023-04-24T09:20:58;7.72;;;1.98;;
11614;SDS011;5863;52.832;4.758;2023-04-24T09:23:27;8.32;;;2.15;;
11614;SDS011;5863;52.832;4.758;2023-04-24T09:25:56;10.35;;;2.15;;
11614;SDS011;5863;52.832;4.758;2023-04-24T09:28:25;8.35;;;2.20;;
11614;SDS011;5863;52.832;4.758;2023-04-24T09:31:02;7.25;;;1.88;;
11614;SDS011;5863;52.832;4.758;2023-04-24T09:33:50;7.40;;;1.83;;
11614;SDS011;5863;52.832;4.758;2023-04-24T09:36:22;3.78;;;1.38;;
11614;SDS011;5863;52.832;4.758;2023-04-24T09:38:53;6.93;;;1.52;;
11614;SDS011;5863;52.832;4.758;2023-04-24T09:41:26;5.88;;;1.85;;
11614;SDS011;5863;52.832;4.758;2023-04-24T09:43:54;6.95;;;1.92;;
11614;SDS011;5863;52.832;4.758;2023-04-24T09:46:28;9.52;;;2.08;;
11614;SDS011;5863;52.832;4.758;2023-04-24T09:48:57;5.70;;;1.88;;
11614;SDS011;5863;52.832;4.758;2023-04-24T09:54:13;9.75;;;2.22;;
11614;SDS011;5863;52.832;4.758;2023-04-24T09:56:43;5.97;;;1.65;;
11614;SDS011;5863;52.832;4.758;2023-04-24T09:59:14;3.10;;;1.30;;
11614;SDS011;5863;52.832;4.758;2023-04-24T10:01:41;7.93;;;2.10;;
11614;SDS011;5863;52.832;4.758;2023-04-24T10:04:15;8.48;;;1.70;;
11614;SDS011;5863;52.832;4.758;2023-04-24T10:06:44;9.73;;;1.70;;
11614;SDS011;5863;52.832;4.758;2023-04-24T10:09:11;6.88;;;1.35;;
11614;SDS011;5863;52.832;4.758;2023-04-24T10:11:40;4.75;;;1.50;;
11614;SDS011;5863;52.832;4.758;2023-04-24T10:14:10;7.95;;;2.00;;
11614;SDS011;5863;52.832;4.758;2023-04-24T10:16:39;6.75;;;1.90;;
11614;SDS011;5863;52.832;4.758;2023-04-24T10:19:06;13.65;;;2.17;;
11614;SDS011;5863;52.832;4.758;2023-04-24T10:21:33;11.38;;;2.00;;
11614;SDS011;5863;52.832;4.758;2023-04-24T10:24:01;7.85;;;2.00;;
11614;SDS011;5863;52.832;4.758;2023-04-24T10:26:29;9.90;;;1.80;;
11614;SDS011;5863;52.832;4.758;2023-04-24T10:28:57;10.07;;;1.95;;
11614;SDS011;5863;52.832;4.758;2023-04-24T10:31:26;8.60;;;2.00;;
11614;SDS011;5863;52.832;4.758;2023-04-24T10:33:56;9.43;;;2.13;;
11614;SDS011;5863;52.832;4.758;2023-04-24T10:36:25;5.28;;;1.35;;
11614;SDS011;5863;52.832;4.758;2023-04-24T10:38:57;4.75;;;1.35;;
11614;SDS011;5863;52.832;4.758;2023-04-24T10:41:27;7.13;;;1.80;;
11614;SDS011;5863;52.832;4.758;2023-04-24T10:44:03;2.80;;;0.90;;
11614;SDS011;5863;52.832;4.758;2023-04-24T10:46:32;5.70;;;0.80;;
11614;SDS011;5863;52.832;4.758;2023-04-24T10:48:59;3.45;;;1.40;;
11614;SDS011;5863;52.832;4.758;2023-04-24T10:51:43;5.22;;;1.00;;
11614;SDS011;5863;52.832;4.758;2023-04-24T10:54:21;8.32;;;1.50;;
11614;SDS011;5863;52.832;4.758;2023-04-24T10:56:52;5.15;;;1.65;;
11614;SDS011;5863;52.832;4.758;2023-04-24T10:59:25;6.60;;;1.83;;
11614;SDS011;5863;52.832;4.758;2023-04-24T11:01:54;10.25;;;2.08;;
11614;SDS011;5863;52.832;4.758;2023-04-24T11:04:31;10.98;;;2.10;;
11614;SDS011;5863;52.832;4.758;2023-04-24T11:06:58;7.63;;;2.10;;
11614;SDS011;5863;52.832;4.758;2023-04-24T11:09:26;7.47;;;1.48;;
11614;SDS011;5863;52.832;4.758;2023-04-24T11:12:02;4.80;;;1.60;;
11614;SDS011;5863;52.832;4.758;2023-04-24T11:14:31;5.00;;;1.65;;
11614;SDS011;5863;52.832;4.758;2023-04-24T11:17:32;3.95;;;1.35;;
11614;SDS011;5863;52.832;4.758;2023-04-24T11:20:02;3.75;;;1.23;;
11614;SDS011;5863;52.832;4.758;2023-04-24T11:22:31;4.97;;;1.60;;
11614;SDS011;5863;52.832;4.758;2023-04-24T11:25:00;7.45;;;1.20;;
11614;SDS011;5863;52.832;4.758;2023-04-24T11:27:29;3.92;;;1.30;;
11614;SDS011;5863;52.832;4.758;2023-04-24T11:29:59;4.38;;;1.05;;
11614;SDS011;5863;52.832;4.758;2023-04-24T11:32:27;9.63;;;1.33;;
11614;SDS011;5863;52.832;4.758;2023-04-24T11:34:57;7.13;;;1.58;;
11614;SDS011;5863;52.832;4.758;2023-04-24T11:37:26;8.68;;;1.70;;
11614;SDS011;5863;52.832;4.758;2023-04-24T11:39:54;5.05;;;1.40;;
11614;SDS011;5863;52.832;4.758;2023-04-24T11:42:22;8.85;;;2.17;;
11614;SDS011;5863;52.832;4.758;2023-04-24T11:44:49;12.02;;;3.03;;
11614;SDS011;5863;52.832;4.758;2023-04-24T11:47:16;7.47;;;1.92;;
11614;SDS011;5863;52.832;4.758;2023-04-24T11:49:42;10.50;;;2.60;;
11614;SDS011;5863;52.832;4.758;2023-04-24T11:52:19;10.00;;;2.38;;
11614;SDS011;5863;52.832;4.758;2023-04-24T11:54:49;8.98;;;2.20;;
11614;SDS011;5863;52.832;4.758;2023-04-24T11:57:16;9.40;;;2.10;;
11614;SDS011;5863;52.832;4.758;2023-04-24T11:59:46;10.48;;;2.90;;
11614;SDS011;5863;52.832;4.758;2023-04-24T12:02:20;8.50;;;1.90;;
11614;SDS011;5863;52.832;4.758;2023-04-24T12:04:47;11.30;;;2.67;;
11614;SDS011;5863;52.832;4.758;2023-04-24T12:07:14;8.73;;;2.67;;
11614;SDS011;5863;52.832;4.758;2023-04-24T12:09:42;11.52;;;2.58;;
11614;SDS011;5863;52.832;4.758;2023-04-24T12:12:11;11.45;;;2.58;;
11614;SDS011;5863;52.832;4.758;2023-04-24T12:14:44;8.45;;;3.25;;
11614;SDS011;5863;52.832;4.758;2023-04-24T12:17:13;8.15;;;2.45;;
11614;SDS011;5863;52.832;4.758;2023-04-24T12:19:44;14.60;;;2.75;;
11614;SDS011;5863;52.832;4.758;2023-04-24T12:22:12;13.27;;;2.75;;
11614;SDS011;5863;52.832;4.758;2023-04-24T12:27:26;15.57;;;3.65;;
11614;SDS011;5863;52.832;4.758;2023-04-24T12:29:55;13.57;;;3.33;;
11614;SDS011;5863;52.832;4.758;2023-04-24T12:32:23;8.85;;;3.00;;
11614;SDS011;5863;52.832;4.758;2023-04-24T12:34:51;10.20;;;3.20;;
11614;SDS011;5863;52.832;4.758;2023-04-24T12:37:18;12.68;;;3.22;;
11614;SDS011;5863;52.832;4.758;2023-04-24T12:39:59;10.40;;;2.40;;
11614;SDS011;5863;52.832;4.758;2023-04-24T12:42:27;10.85;;;2.97;;
11614;SDS011;5863;52.832;4.758;2023-04-24T12:44:58;9.52;;;2.58;;
11614;SDS011;5863;52.832;4.758;2023-04-24T12:47:26;7.45;;;2.08;;
11614;SDS011;5863;52.832;4.758;2023-04-24T12:49:53;11.40;;;3.00;;
11614;SDS011;5863;52.832;4.758;2023-04-24T12:52:21;10.52;;;2.83;;
11614;SDS011;5863;52.832;4.758;2023-04-24T12:54:48;8.13;;;2.60;;
11614;SDS011;5863;52.832;4.758;2023-04-24T12:57:17;13.63;;;2.80;;
11614;SDS011;5863;52.832;4.758;2023-04-24T12:59:45;12.43;;;2.85;;
11614;SDS011;5863;52.832;4.758;2023-04-24T13:02:11;11.25;;;3.05;;
11614;SDS011;5863;52.832;4.758;2023-04-24T13:04:38;11.18;;;3.05;;
11614;SDS011;5863;52.832;4.758;2023-04-24T13:07:05;11.23;;;2.75;;
11614;SDS011;5863;52.832;4.758;2023-04-24T13:09:31;9.70;;;2.72;;
11614;SDS011;5863;52.832;4.758;2023-04-24T13:12:00;14.65;;;3.03;;
11614;SDS011;5863;52.832;4.758;2023-04-24T13:14:28;19.05;;;3.35;;
11614;SDS011;5863;52.832;4.758;2023-04-24T13:16:55;12.82;;;3.33;;
11614;SDS011;5863;52.832;4.758;2023-04-24T13:19:23;14.50;;;3.28;;
11614;SDS011;5863;52.832;4.758;2023-04-24T13:21:51;12.20;;;2.88;;
11614;SDS011;5863;52.832;4.758;2023-04-24T13:24:17;15.18;;;3.63;;
11614;SDS011;5863;52.832;4.758;2023-04-24T13:26:45;13.20;;;4.05;;
11614;SDS011;5863;52.832;4.758;2023-04-24T13:29:11;13.30;;;3.53;;
11614;SDS011;5863;52.832;4.758;2023-04-24T13:31:39;17.25;;;4.18;;
11614;SDS011;5863;52.832;4.758;2023-04-24T13:34:06;18.10;;;3.85;;
11614;SDS011;5863;52.832;4.758;2023-04-24T13:36:33;16.48;;;3.42;;
11614;SDS011;5863;52.832;4.758;2023-04-24T13:39:00;14.25;;;3.95;;
11614;SDS011;5863;52.832;4.758;2023-04-24T13:41:28;15.75;;;3.38;;
11614;SDS011;5863;52.832;4.758;2023-04-24T13:43:54;13.00;;;3.35;;
11614;SDS011;5863;52.832;4.758;2023-04-24T13:46:21;21.05;;;3.88;;
11614;SDS011;5863;52.832;4.758;2023-04-24T13:48:49;9.52;;;3.60;;
11614;SDS011;5863;52.832;4.758;2023-04-24T13:51:16;11.35;;;3.30;;
11614;SDS011;5863;52.832;4.758;2023-04-24T13:53:43;10.18;;;3.08;;
11614;SDS011;5863;52.832;4.758;2023-04-24T13:56:10;14.90;;;3.55;;
11614;SDS011;5863;52.832;4.758;2023-04-24T13:58:38;11.63;;;3.40;;
11614;SDS011;5863;52.832;4.758;2023-04-24T14:01:05;13.27;;;3.20;;
11614;SDS011;5863;52.832;4.758;2023-04-24T14:03:32;12.20;;;3.20;;
11614;SDS011;5863;52.832;4.758;2023-04-24T14:06:01;14.85;;;4.38;;
11614;SDS011;5863;52.832;4.758;2023-04-24T14:08:27;18.00;;;3.90;;
11614;SDS011;5863;52.832;4.758;2023-04-24T14:10:54;16.90;;;4.38;;
11614;SDS011;5863;52.832;4.758;2023-04-24T14:13:21;19.50;;;4.00;;
11614;SDS011;5863;52.832;4.758;2023-04-24T14:15:48;12.38;;;3.80;;
11614;SDS011;5863;52.832;4.758;2023-04-24T14:18:15;13.88;;;3.53;;
11614;SDS011;5863;52.832;4.758;2023-04-24T14:20:42;17.48;;;3.83;;
11614;SDS011;5863;52.832;4.758;2023-04-24T14:23:10;10.15;;;3.17;;
11614;SDS011;5863;52.832;4.758;2023-04-24T14:25:37;15.82;;;3.83;;
11614;SDS011;5863;52.832;4.758;2023-04-24T14:28:03;12.90;;;3.40;;
11614;SDS011;5863;52.832;4.758;2023-04-24T14:30:32;14.02;;;3.88;;
11614;SDS011;5863;52.832;4.758;2023-04-24T14:32:58;11.48;;;3.47;;
11614;SDS011;5863;52.832;4.758;2023-04-24T14:35:25;9.60;;;3.10;;
11614;SDS011;5863;52.832;4.758;2023-04-24T14:37:53;13.32;;;3.58;;
11614;SDS011;5863;52.832;4.758;2023-04-24T14:40:22;12.75;;;3.33;;
11614;SDS011;5863;52.832;4.758;2023-04-24T14:42:48;17.10;;;3.80;;
11614;SDS011;5863;52.832;4.758;2023-04-24T14:45:15;10.40;;;2.85;;
11614;SDS011;5863;52.832;4.758;2023-04-24T14:47:42;8.63;;;2.45;;
11614;SDS011;5863;52.832;4.758;2023-04-24T14:50:09;9.30;;;2.60;;
11614;SDS011;5863;52.832;4.758;2023-04-24T14:52:39;11.20;;;2.92;;
11614;SDS011;5863;52.832;4.758;2023-04-24T14:55:06;13.20;;;2.95;;
11614;SDS011;5863;52.832;4.758;2023-04-24T14:57:35;12.05;;;3.22;;
11614;SDS011;5863;52.832;4.758;2023-04-24T15:00:02;10.77;;;3.15;;
11614;SDS011;5863;52.832;4.758;2023-04-24T15:02:31;12.95;;;3.08;;
11614;SDS011;5863;52.832;4.758;2023-04-24T15:04:58;15.20;;;3.05;;